sensor_id;sensor_type;location;lat;lon;timestamp;P1;durP1;ratioP1;P2;durP2;ratioP2
20621;SDS011;10470;42.670;23.354;2022-08-25T00:02:08;18.77;;;8.97;;
20621;SDS011;10470;42.670;23.354;2022-08-25T00:04:35;16.67;;;8.20;;
20621;SDS011;10470;42.670;23.354;2022-08-25T00:07:01;18.97;;;8.70;;
20621;SDS011;10470;42.670;23.354;2022-08-25T00:09:28;14.93;;;8.37;;
20621;SDS011;10470;42.670;23.354;2022-08-25T00:11:55;15.53;;;8.80;;
20621;SDS011;10470;42.670;23.354;2022-08-25T00:14:25;17.37;;;8.13;;
20621;SDS011;10470;42.670;23.354;2022-08-25T00:16:53;13.87;;;8.17;;
20621;SDS011;10470;42.670;23.354;2022-08-25T00:19:20;15.67;;;8.40;;
20621;SDS011;10470;42.670;23.354;2022-08-25T00:21:48;19.47;;;8.30;;
20621;SDS011;10470;42.670;23.354;2022-08-25T00:24:15;19.83;;;8.40;;
20621;SDS011;10470;42.670;23.354;2022-08-25T00:26:44;18.50;;;8.43;;
20621;SDS011;10470;42.670;23.354;2022-08-25T00:29:11;13.53;;;7.77;;
20621;SDS011;10470;42.670;23.354;2022-08-25T00:31:37;15.80;;;7.67;;
20621;SDS011;10470;42.670;23.354;2022-08-25T00:34:03;13.93;;;8.23;;
20621;SDS011;10470;42.670;23.354;2022-08-25T00:36:31;20.63;;;7.87;;
20621;SDS011;10470;42.670;23.354;2022-08-25T00:38:57;14.53;;;7.70;;
20621;SDS011;10470;42.670;23.354;2022-08-25T00:41:23;16.57;;;7.87;;
20621;SDS011;10470;42.670;23.354;2022-08-25T00:43:51;14.73;;;7.77;;
20621;SDS011;10470;42.670;23.354;2022-08-25T00:46:26;16.87;;;8.03;;
20621;SDS011;10470;42.670;23.354;2022-08-25T00:49:06;17.30;;;7.83;;
20621;SDS011;10470;42.670;23.354;2022-08-25T00:51:43;17.00;;;8.37;;
20621;SDS011;10470;42.670;23.354;2022-08-25T00:54:15;15.00;;;7.50;;
20621;SDS011;10470;42.670;23.354;2022-08-25T00:56:45;14.47;;;7.13;;
20621;SDS011;10470;42.670;23.354;2022-08-25T00:59:11;11.93;;;7.33;;
20621;SDS011;10470;42.670;23.354;2022-08-25T01:01:38;13.43;;;7.73;;
20621;SDS011;10470;42.670;23.354;2022-08-25T01:04:05;17.50;;;8.37;;
20621;SDS011;10470;42.670;23.354;2022-08-25T01:06:31;15.27;;;7.53;;
20621;SDS011;10470;42.670;23.354;2022-08-25T01:09:00;17.27;;;7.63;;
20621;SDS011;10470;42.670;23.354;2022-08-25T01:11:26;16.00;;;8.37;;
20621;SDS011;10470;42.670;23.354;2022-08-25T01:13:52;14.03;;;7.27;;
20621;SDS011;10470;42.670;23.354;2022-08-25T01:16:21;12.93;;;7.70;;
20621;SDS011;10470;42.670;23.354;2022-08-25T01:18:48;17.90;;;7.63;;
20621;SDS011;10470;42.670;23.354;2022-08-25T01:21:16;14.17;;;7.23;;
20621;SDS011;10470;42.670;23.354;2022-08-25T01:23:44;17.53;;;7.67;;
20621;SDS011;10470;42.670;23.354;2022-08-25T01:26:17;14.03;;;7.10;;
20621;SDS011;10470;42.670;23.354;2022-08-25T01:28:46;20.13;;;7.43;;
20621;SDS011;10470;42.670;23.354;2022-08-25T01:31:31;18.43;;;7.63;;
20621;SDS011;10470;42.670;23.354;2022-08-25T01:33:58;12.47;;;7.20;;
20621;SDS011;10470;42.670;23.354;2022-08-25T01:36:24;16.90;;;7.30;;
20621;SDS011;10470;42.670;23.354;2022-08-25T01:38:51;10.77;;;7.63;;
20621;SDS011;10470;42.670;23.354;2022-08-25T01:43:57;13.90;;;8.03;;
20621;SDS011;10470;42.670;23.354;2022-08-25T01:46:24;14.83;;;8.17;;
20621;SDS011;10470;42.670;23.354;2022-08-25T01:48:49;13.43;;;7.80;;
20621;SDS011;10470;42.670;23.354;2022-08-25T01:51:15;13.17;;;7.40;;
20621;SDS011;10470;42.670;23.354;2022-08-25T01:53:44;14.63;;;8.00;;
20621;SDS011;10470;42.670;23.354;2022-08-25T01:56:11;16.23;;;7.70;;
20621;SDS011;10470;42.670;23.354;2022-08-25T01:58:41;14.50;;;7.87;;
20621;SDS011;10470;42.670;23.354;2022-08-25T02:01:11;18.43;;;8.70;;
20621;SDS011;10470;42.670;23.354;2022-08-25T02:03:40;16.67;;;8.33;;
20621;SDS011;10470;42.670;23.354;2022-08-25T02:06:10;17.03;;;8.97;;
20621;SDS011;10470;42.670;23.354;2022-08-25T02:08:36;15.37;;;7.87;;
20621;SDS011;10470;42.670;23.354;2022-08-25T02:11:02;15.83;;;8.00;;
20621;SDS011;10470;42.670;23.354;2022-08-25T02:13:28;11.67;;;7.80;;
20621;SDS011;10470;42.670;23.354;2022-08-25T02:15:54;13.27;;;7.60;;
20621;SDS011;10470;42.670;23.354;2022-08-25T02:18:22;12.37;;;7.40;;
20621;SDS011;10470;42.670;23.354;2022-08-25T02:20:48;16.13;;;7.90;;
20621;SDS011;10470;42.670;23.354;2022-08-25T02:23:14;12.77;;;7.23;;
20621;SDS011;10470;42.670;23.354;2022-08-25T02:25:39;14.43;;;7.40;;
20621;SDS011;10470;42.670;23.354;2022-08-25T02:28:06;13.87;;;7.10;;
20621;SDS011;10470;42.670;23.354;2022-08-25T02:30:32;19.30;;;7.20;;
20621;SDS011;10470;42.670;23.354;2022-08-25T02:32:58;15.33;;;7.70;;
20621;SDS011;10470;42.670;23.354;2022-08-25T02:35:24;12.73;;;6.97;;
20621;SDS011;10470;42.670;23.354;2022-08-25T02:37:50;17.53;;;7.77;;
20621;SDS011;10470;42.670;23.354;2022-08-25T02:40:17;12.70;;;6.80;;
20621;SDS011;10470;42.670;23.354;2022-08-25T02:42:45;15.70;;;7.30;;
20621;SDS011;10470;42.670;23.354;2022-08-25T02:45:11;12.20;;;7.40;;
20621;SDS011;10470;42.670;23.354;2022-08-25T02:47:38;14.47;;;7.20;;
20621;SDS011;10470;42.670;23.354;2022-08-25T02:50:04;12.60;;;6.73;;
20621;SDS011;10470;42.670;23.354;2022-08-25T02:52:30;16.00;;;7.17;;
20621;SDS011;10470;42.670;23.354;2022-08-25T02:54:55;13.67;;;6.83;;
20621;SDS011;10470;42.670;23.354;2022-08-25T02:57:21;16.57;;;7.50;;
20621;SDS011;10470;42.670;23.354;2022-08-25T02:59:46;12.93;;;7.27;;
20621;SDS011;10470;42.670;23.354;2022-08-25T03:02:13;14.90;;;6.83;;
20621;SDS011;10470;42.670;23.354;2022-08-25T03:04:41;13.27;;;6.97;;
20621;SDS011;10470;42.670;23.354;2022-08-25T03:07:08;12.73;;;6.90;;
20621;SDS011;10470;42.670;23.354;2022-08-25T03:09:34;15.63;;;7.40;;
20621;SDS011;10470;42.670;23.354;2022-08-25T03:12:00;16.73;;;11.20;;
20621;SDS011;10470;42.670;23.354;2022-08-25T03:14:26;14.20;;;7.20;;
20621;SDS011;10470;42.670;23.354;2022-08-25T03:16:51;14.60;;;7.33;;
20621;SDS011;10470;42.670;23.354;2022-08-25T03:19:17;12.87;;;7.60;;
20621;SDS011;10470;42.670;23.354;2022-08-25T03:21:42;18.10;;;7.60;;
20621;SDS011;10470;42.670;23.354;2022-08-25T03:24:09;12.37;;;6.93;;
20621;SDS011;10470;42.670;23.354;2022-08-25T03:26:35;12.57;;;7.23;;
20621;SDS011;10470;42.670;23.354;2022-08-25T03:29:24;13.40;;;6.73;;
20621;SDS011;10470;42.670;23.354;2022-08-25T03:31:52;16.13;;;8.13;;
20621;SDS011;10470;42.670;23.354;2022-08-25T03:34:19;15.37;;;7.10;;
20621;SDS011;10470;42.670;23.354;2022-08-25T03:36:47;14.90;;;7.73;;
20621;SDS011;10470;42.670;23.354;2022-08-25T03:39:15;18.87;;;7.43;;
20621;SDS011;10470;42.670;23.354;2022-08-25T03:41:41;12.60;;;7.07;;
20621;SDS011;10470;42.670;23.354;2022-08-25T03:44:07;13.13;;;6.90;;
20621;SDS011;10470;42.670;23.354;2022-08-25T03:46:44;16.67;;;7.60;;
20621;SDS011;10470;42.670;23.354;2022-08-25T03:49:13;15.47;;;7.10;;
20621;SDS011;10470;42.670;23.354;2022-08-25T03:51:44;13.67;;;6.83;;
20621;SDS011;10470;42.670;23.354;2022-08-25T03:54:12;19.33;;;7.27;;
20621;SDS011;10470;42.670;23.354;2022-08-25T03:56:43;16.33;;;7.47;;
20621;SDS011;10470;42.670;23.354;2022-08-25T03:59:09;13.17;;;7.37;;
20621;SDS011;10470;42.670;23.354;2022-08-25T04:01:36;14.53;;;7.53;;
20621;SDS011;10470;42.670;23.354;2022-08-25T04:04:02;14.40;;;7.57;;
20621;SDS011;10470;42.670;23.354;2022-08-25T04:06:29;21.00;;;7.70;;
20621;SDS011;10470;42.670;23.354;2022-08-25T04:08:55;14.23;;;7.73;;
20621;SDS011;10470;42.670;23.354;2022-08-25T04:11:23;20.07;;;7.60;;
20621;SDS011;10470;42.670;23.354;2022-08-25T04:13:49;15.33;;;7.50;;
20621;SDS011;10470;42.670;23.354;2022-08-25T04:16:18;12.90;;;7.10;;
20621;SDS011;10470;42.670;23.354;2022-08-25T04:18:46;13.20;;;7.87;;
20621;SDS011;10470;42.670;23.354;2022-08-25T04:21:13;18.07;;;8.00;;
20621;SDS011;10470;42.670;23.354;2022-08-25T04:23:40;12.27;;;7.40;;
20621;SDS011;10470;42.670;23.354;2022-08-25T04:26:10;20.60;;;7.67;;
20621;SDS011;10470;42.670;23.354;2022-08-25T04:28:38;13.90;;;7.47;;
20621;SDS011;10470;42.670;23.354;2022-08-25T04:31:05;17.87;;;7.27;;
20621;SDS011;10470;42.670;23.354;2022-08-25T04:33:33;17.40;;;6.97;;
20621;SDS011;10470;42.670;23.354;2022-08-25T04:35:59;10.93;;;7.20;;
20621;SDS011;10470;42.670;23.354;2022-08-25T04:38:24;15.20;;;7.23;;
20621;SDS011;10470;42.670;23.354;2022-08-25T04:41:10;14.73;;;7.67;;
20621;SDS011;10470;42.670;23.354;2022-08-25T04:43:37;16.97;;;7.83;;
20621;SDS011;10470;42.670;23.354;2022-08-25T04:46:09;13.47;;;7.50;;
20621;SDS011;10470;42.670;23.354;2022-08-25T04:48:36;14.33;;;7.53;;
20621;SDS011;10470;42.670;23.354;2022-08-25T04:51:08;12.83;;;7.60;;
20621;SDS011;10470;42.670;23.354;2022-08-25T04:53:35;16.20;;;8.03;;
20621;SDS011;10470;42.670;23.354;2022-08-25T04:56:03;17.57;;;7.80;;
20621;SDS011;10470;42.670;23.354;2022-08-25T04:58:30;17.73;;;8.03;;
20621;SDS011;10470;42.670;23.354;2022-08-25T05:01:06;15.20;;;8.00;;
20621;SDS011;10470;42.670;23.354;2022-08-25T05:03:34;20.37;;;8.33;;
20621;SDS011;10470;42.670;23.354;2022-08-25T05:06:01;15.93;;;8.27;;
20621;SDS011;10470;42.670;23.354;2022-08-25T05:08:36;18.40;;;8.67;;
20621;SDS011;10470;42.670;23.354;2022-08-25T05:11:10;15.33;;;8.27;;
20621;SDS011;10470;42.670;23.354;2022-08-25T05:13:59;14.17;;;8.03;;
20621;SDS011;10470;42.670;23.354;2022-08-25T05:16:45;13.93;;;9.07;;
20621;SDS011;10470;42.670;23.354;2022-08-25T05:19:31;17.90;;;9.07;;
20621;SDS011;10470;42.670;23.354;2022-08-25T05:22:16;16.47;;;8.60;;
20621;SDS011;10470;42.670;23.354;2022-08-25T05:25:02;16.10;;;8.90;;
20621;SDS011;10470;42.670;23.354;2022-08-25T05:27:47;15.47;;;8.50;;
20621;SDS011;10470;42.670;23.354;2022-08-25T05:30:35;16.60;;;8.63;;
20621;SDS011;10470;42.670;23.354;2022-08-25T05:33:22;14.83;;;8.80;;
20621;SDS011;10470;42.670;23.354;2022-08-25T05:36:08;16.07;;;8.30;;
20621;SDS011;10470;42.670;23.354;2022-08-25T05:38:55;15.13;;;8.63;;
20621;SDS011;10470;42.670;23.354;2022-08-25T05:41:40;16.73;;;8.20;;
20621;SDS011;10470;42.670;23.354;2022-08-25T05:44:26;17.00;;;8.27;;
20621;SDS011;10470;42.670;23.354;2022-08-25T05:47:11;20.17;;;9.37;;
20621;SDS011;10470;42.670;23.354;2022-08-25T05:49:56;17.20;;;8.70;;
20621;SDS011;10470;42.670;23.354;2022-08-25T05:52:42;17.23;;;8.30;;
20621;SDS011;10470;42.670;23.354;2022-08-25T05:55:22;14.37;;;8.17;;
20621;SDS011;10470;42.670;23.354;2022-08-25T05:58:08;17.53;;;8.43;;
20621;SDS011;10470;42.670;23.354;2022-08-25T06:00:33;15.93;;;8.20;;
20621;SDS011;10470;42.670;23.354;2022-08-25T06:02:59;17.70;;;9.10;;
20621;SDS011;10470;42.670;23.354;2022-08-25T06:05:24;12.47;;;8.10;;
20621;SDS011;10470;42.670;23.354;2022-08-25T06:07:50;14.43;;;8.67;;
20621;SDS011;10470;42.670;23.354;2022-08-25T06:10:16;14.53;;;8.90;;
20621;SDS011;10470;42.670;23.354;2022-08-25T06:12:44;13.90;;;7.77;;
20621;SDS011;10470;42.670;23.354;2022-08-25T06:15:11;15.40;;;8.43;;
20621;SDS011;10470;42.670;23.354;2022-08-25T06:17:42;19.03;;;9.27;;
20621;SDS011;10470;42.670;23.354;2022-08-25T06:20:08;15.23;;;8.50;;
20621;SDS011;10470;42.670;23.354;2022-08-25T06:22:36;13.13;;;8.00;;
20621;SDS011;10470;42.670;23.354;2022-08-25T06:25:06;17.47;;;8.30;;
20621;SDS011;10470;42.670;23.354;2022-08-25T06:27:33;14.53;;;7.87;;
20621;SDS011;10470;42.670;23.354;2022-08-25T06:29:59;15.57;;;8.70;;
20621;SDS011;10470;42.670;23.354;2022-08-25T06:32:31;14.83;;;8.40;;
20621;SDS011;10470;42.670;23.354;2022-08-25T06:34:57;11.37;;;7.50;;
20621;SDS011;10470;42.670;23.354;2022-08-25T06:37:43;13.90;;;7.97;;
20621;SDS011;10470;42.670;23.354;2022-08-25T06:40:29;10.97;;;7.53;;
20621;SDS011;10470;42.670;23.354;2022-08-25T06:43:15;12.87;;;8.33;;
20621;SDS011;10470;42.670;23.354;2022-08-25T06:46:10;16.30;;;7.80;;
20621;SDS011;10470;42.670;23.354;2022-08-25T06:48:58;15.53;;;8.47;;
20621;SDS011;10470;42.670;23.354;2022-08-25T06:51:38;15.37;;;7.83;;
20621;SDS011;10470;42.670;23.354;2022-08-25T06:54:26;14.33;;;7.97;;
20621;SDS011;10470;42.670;23.354;2022-08-25T06:57:11;12.33;;;7.03;;
20621;SDS011;10470;42.670;23.354;2022-08-25T06:59:57;15.03;;;7.10;;
20621;SDS011;10470;42.670;23.354;2022-08-25T07:02:42;17.77;;;7.97;;
20621;SDS011;10470;42.670;23.354;2022-08-25T07:05:28;14.37;;;7.90;;
20621;SDS011;10470;42.670;23.354;2022-08-25T07:08:13;16.33;;;7.70;;
20621;SDS011;10470;42.670;23.354;2022-08-25T07:11:03;13.20;;;7.47;;
20621;SDS011;10470;42.670;23.354;2022-08-25T07:13:52;13.60;;;7.00;;
20621;SDS011;10470;42.670;23.354;2022-08-25T07:16:38;15.27;;;7.17;;
20621;SDS011;10470;42.670;23.354;2022-08-25T07:19:24;14.60;;;8.23;;
20621;SDS011;10470;42.670;23.354;2022-08-25T07:22:10;14.70;;;8.10;;
20621;SDS011;10470;42.670;23.354;2022-08-25T07:24:55;14.80;;;7.30;;
20621;SDS011;10470;42.670;23.354;2022-08-25T07:27:41;16.47;;;7.70;;
20621;SDS011;10470;42.670;23.354;2022-08-25T07:30:26;15.13;;;7.80;;
20621;SDS011;10470;42.670;23.354;2022-08-25T07:33:12;14.83;;;7.37;;
20621;SDS011;10470;42.670;23.354;2022-08-25T07:35:57;11.77;;;7.03;;
20621;SDS011;10470;42.670;23.354;2022-08-25T07:38:43;18.00;;;6.63;;
20621;SDS011;10470;42.670;23.354;2022-08-25T07:41:08;13.00;;;6.90;;
20621;SDS011;10470;42.670;23.354;2022-08-25T07:43:53;13.10;;;7.23;;
20621;SDS011;10470;42.670;23.354;2022-08-25T07:46:39;14.43;;;7.30;;
20621;SDS011;10470;42.670;23.354;2022-08-25T07:49:25;17.83;;;7.90;;
20621;SDS011;10470;42.670;23.354;2022-08-25T07:52:11;18.43;;;9.73;;
20621;SDS011;10470;42.670;23.354;2022-08-25T07:54:56;16.13;;;8.17;;
20621;SDS011;10470;42.670;23.354;2022-08-25T07:57:42;24.57;;;12.33;;
20621;SDS011;10470;42.670;23.354;2022-08-25T08:00:28;12.37;;;7.63;;
20621;SDS011;10470;42.670;23.354;2022-08-25T08:03:16;13.10;;;7.90;;
20621;SDS011;10470;42.670;23.354;2022-08-25T08:06:05;15.13;;;7.87;;
20621;SDS011;10470;42.670;23.354;2022-08-25T08:08:53;15.03;;;7.07;;
20621;SDS011;10470;42.670;23.354;2022-08-25T08:11:40;14.97;;;7.27;;
20621;SDS011;10470;42.670;23.354;2022-08-25T08:14:28;19.10;;;7.73;;
20621;SDS011;10470;42.670;23.354;2022-08-25T08:17:14;11.27;;;6.47;;
20621;SDS011;10470;42.670;23.354;2022-08-25T08:20:00;13.97;;;7.10;;
20621;SDS011;10470;42.670;23.354;2022-08-25T08:22:46;16.20;;;6.37;;
20621;SDS011;10470;42.670;23.354;2022-08-25T08:25:31;14.03;;;6.47;;
20621;SDS011;10470;42.670;23.354;2022-08-25T08:28:16;16.07;;;6.57;;
20621;SDS011;10470;42.670;23.354;2022-08-25T08:31:02;15.07;;;6.63;;
20621;SDS011;10470;42.670;23.354;2022-08-25T08:33:49;19.23;;;6.23;;
20621;SDS011;10470;42.670;23.354;2022-08-25T08:36:35;16.03;;;6.20;;
20621;SDS011;10470;42.670;23.354;2022-08-25T08:39:20;17.17;;;6.43;;
20621;SDS011;10470;42.670;23.354;2022-08-25T08:42:12;16.10;;;6.50;;
20621;SDS011;10470;42.670;23.354;2022-08-25T08:45:06;14.57;;;6.57;;
20621;SDS011;10470;42.670;23.354;2022-08-25T08:56:08;17.27;;;5.37;;
20621;SDS011;10470;42.670;23.354;2022-08-25T08:58:57;19.60;;;4.67;;
20621;SDS011;10470;42.670;23.354;2022-08-25T09:01:47;17.07;;;4.93;;
20621;SDS011;10470;42.670;23.354;2022-08-25T09:04:47;14.23;;;4.67;;
20621;SDS011;10470;42.670;23.354;2022-08-25T09:07:44;16.23;;;5.07;;
20621;SDS011;10470;42.670;23.354;2022-08-25T09:11:09;18.80;;;4.70;;
20621;SDS011;10470;42.670;23.354;2022-08-25T09:16:30;18.37;;;5.33;;
20621;SDS011;10470;42.670;23.354;2022-08-25T09:27:35;15.77;;;3.90;;
20621;SDS011;10470;42.670;23.354;2022-08-25T09:32:34;14.23;;;3.70;;
20621;SDS011;10470;42.670;23.354;2022-08-25T09:35:07;11.83;;;3.57;;
20621;SDS011;10470;42.670;23.354;2022-08-25T09:37:53;12.27;;;4.30;;
20621;SDS011;10470;42.670;23.354;2022-08-25T09:40:20;13.63;;;4.03;;
20621;SDS011;10470;42.670;23.354;2022-08-25T09:42:50;17.50;;;4.30;;
20621;SDS011;10470;42.670;23.354;2022-08-25T09:45:36;10.43;;;4.00;;
20621;SDS011;10470;42.670;23.354;2022-08-25T09:50:44;11.60;;;3.80;;
20621;SDS011;10470;42.670;23.354;2022-08-25T09:53:12;13.17;;;3.67;;
20621;SDS011;10470;42.670;23.354;2022-08-25T09:55:40;13.43;;;3.20;;
20621;SDS011;10470;42.670;23.354;2022-08-25T09:58:16;18.70;;;3.53;;
20621;SDS011;10470;42.670;23.354;2022-08-25T10:00:44;13.00;;;3.40;;
20621;SDS011;10470;42.670;23.354;2022-08-25T10:03:35;13.03;;;3.30;;
20621;SDS011;10470;42.670;23.354;2022-08-25T10:06:05;10.30;;;3.30;;
20621;SDS011;10470;42.670;23.354;2022-08-25T10:14:06;21.33;;;3.40;;
20621;SDS011;10470;42.670;23.354;2022-08-25T10:16:40;12.87;;;3.97;;
20621;SDS011;10470;42.670;23.354;2022-08-25T10:19:08;12.30;;;3.30;;
20621;SDS011;10470;42.670;23.354;2022-08-25T10:21:46;6.90;;;3.00;;
20621;SDS011;10470;42.670;23.354;2022-08-25T10:24:30;19.70;;;3.73;;
20621;SDS011;10470;42.670;23.354;2022-08-25T10:27:11;14.63;;;3.60;;
20621;SDS011;10470;42.670;23.354;2022-08-25T10:30:00;12.90;;;3.30;;
20621;SDS011;10470;42.670;23.354;2022-08-25T10:43:30;9.80;;;3.73;;
20621;SDS011;10470;42.670;23.354;2022-08-25T10:51:40;11.73;;;2.90;;
20621;SDS011;10470;42.670;23.354;2022-08-25T10:54:19;9.63;;;3.10;;
20621;SDS011;10470;42.670;23.354;2022-08-25T10:59:50;15.10;;;3.10;;
20621;SDS011;10470;42.670;23.354;2022-08-25T11:16:18;17.17;;;3.30;;
20621;SDS011;10470;42.670;23.354;2022-08-25T11:18:52;11.33;;;3.60;;
20621;SDS011;10470;42.670;23.354;2022-08-25T11:21:33;9.10;;;3.03;;
20621;SDS011;10470;42.670;23.354;2022-08-25T11:26:42;19.20;;;3.37;;
20621;SDS011;10470;42.670;23.354;2022-08-25T11:29:15;12.03;;;3.53;;
20621;SDS011;10470;42.670;23.354;2022-08-25T11:31:46;14.20;;;3.37;;
20621;SDS011;10470;42.670;23.354;2022-08-25T11:34:15;15.37;;;3.70;;
20621;SDS011;10470;42.670;23.354;2022-08-25T11:37:28;11.47;;;3.27;;
20621;SDS011;10470;42.670;23.354;2022-08-25T11:44:38;10.87;;;3.47;;
20621;SDS011;10470;42.670;23.354;2022-08-25T11:47:23;12.57;;;3.20;;
20621;SDS011;10470;42.670;23.354;2022-08-25T11:52:51;12.00;;;3.00;;
20621;SDS011;10470;42.670;23.354;2022-08-25T11:58:35;12.20;;;3.30;;
20621;SDS011;10470;42.670;23.354;2022-08-25T12:01:09;7.30;;;2.80;;
20621;SDS011;10470;42.670;23.354;2022-08-25T12:09:33;10.85;;;3.50;;
20621;SDS011;10470;42.670;23.354;2022-08-25T12:14:53;7.95;;;3.10;;
20621;SDS011;10470;42.670;23.354;2022-08-25T12:17:20;8.10;;;2.80;;
20621;SDS011;10470;42.670;23.354;2022-08-25T12:19:50;10.87;;;3.50;;
20621;SDS011;10470;42.670;23.354;2022-08-25T12:24:59;13.30;;;3.53;;
20621;SDS011;10470;42.670;23.354;2022-08-25T12:35:57;5.65;;;2.33;;
20621;SDS011;10470;42.670;23.354;2022-08-25T12:38:41;11.77;;;3.30;;
20621;SDS011;10470;42.670;23.354;2022-08-25T12:41:13;7.70;;;2.90;;
20621;SDS011;10470;42.670;23.354;2022-08-25T12:43:46;10.63;;;3.05;;
20621;SDS011;10470;42.670;23.354;2022-08-25T12:57:00;9.27;;;3.17;;
20621;SDS011;10470;42.670;23.354;2022-08-25T12:59:34;8.73;;;3.00;;
20621;SDS011;10470;42.670;23.354;2022-08-25T13:07:31;8.98;;;2.90;;
20621;SDS011;10470;42.670;23.354;2022-08-25T13:20:47;9.97;;;3.50;;
20621;SDS011;10470;42.670;23.354;2022-08-25T13:23:16;6.77;;;2.80;;
20621;SDS011;10470;42.670;23.354;2022-08-25T13:25:47;6.90;;;2.73;;
20621;SDS011;10470;42.670;23.354;2022-08-25T13:28:32;8.17;;;2.90;;
20621;SDS011;10470;42.670;23.354;2022-08-25T13:33:54;12.43;;;2.97;;
20621;SDS011;10470;42.670;23.354;2022-08-25T13:36:25;7.10;;;2.70;;
20621;SDS011;10470;42.670;23.354;2022-08-25T13:39:12;12.02;;;3.13;;
20621;SDS011;10470;42.670;23.354;2022-08-25T13:41:43;13.87;;;3.00;;
20621;SDS011;10470;42.670;23.354;2022-08-25T13:44:12;11.30;;;3.20;;
20621;SDS011;10470;42.670;23.354;2022-08-25T13:46:38;7.88;;;3.17;;
20621;SDS011;10470;42.670;23.354;2022-08-25T13:49:04;9.27;;;3.08;;
20621;SDS011;10470;42.670;23.354;2022-08-25T13:51:31;9.85;;;3.13;;
20621;SDS011;10470;42.670;23.354;2022-08-25T13:54:01;9.10;;;3.20;;
20621;SDS011;10470;42.670;23.354;2022-08-25T13:56:31;10.90;;;3.40;;
20621;SDS011;10470;42.670;23.354;2022-08-25T13:58:59;12.07;;;3.00;;
20621;SDS011;10470;42.670;23.354;2022-08-25T14:01:28;11.75;;;2.72;;
20621;SDS011;10470;42.670;23.354;2022-08-25T14:07:03;13.95;;;3.25;;
20621;SDS011;10470;42.670;23.354;2022-08-25T14:09:56;12.45;;;2.75;;
20621;SDS011;10470;42.670;23.354;2022-08-25T14:17:41;12.75;;;2.90;;
20621;SDS011;10470;42.670;23.354;2022-08-25T14:20:31;7.72;;;2.85;;
20621;SDS011;10470;42.670;23.354;2022-08-25T14:22:56;7.68;;;2.67;;
20621;SDS011;10470;42.670;23.354;2022-08-25T14:25:25;6.80;;;3.00;;
20621;SDS011;10470;42.670;23.354;2022-08-25T14:27:58;8.57;;;2.83;;
20621;SDS011;10470;42.670;23.354;2022-08-25T14:30:26;13.50;;;4.00;;
20621;SDS011;10470;42.670;23.354;2022-08-25T14:32:52;12.80;;;3.38;;
20621;SDS011;10470;42.670;23.354;2022-08-25T14:35:19;8.55;;;2.65;;
20621;SDS011;10470;42.670;23.354;2022-08-25T14:37:46;8.88;;;3.35;;
20621;SDS011;10470;42.670;23.354;2022-08-25T14:40:13;7.65;;;2.58;;
20621;SDS011;10470;42.670;23.354;2022-08-25T14:42:44;12.30;;;6.22;;
20621;SDS011;10470;42.670;23.354;2022-08-25T14:45:14;9.98;;;3.10;;
20621;SDS011;10470;42.670;23.354;2022-08-25T14:47:40;11.02;;;2.60;;
20621;SDS011;10470;42.670;23.354;2022-08-25T14:50:06;9.57;;;2.60;;
20621;SDS011;10470;42.670;23.354;2022-08-25T14:52:32;7.93;;;3.17;;
20621;SDS011;10470;42.670;23.354;2022-08-25T14:54:59;7.47;;;2.40;;
20621;SDS011;10470;42.670;23.354;2022-08-25T14:57:24;8.35;;;3.15;;
20621;SDS011;10470;42.670;23.354;2022-08-25T14:59:50;9.13;;;3.08;;
20621;SDS011;10470;42.670;23.354;2022-08-25T15:02:17;10.52;;;2.88;;
20621;SDS011;10470;42.670;23.354;2022-08-25T15:04:53;7.32;;;2.60;;
20621;SDS011;10470;42.670;23.354;2022-08-25T15:07:21;11.57;;;2.67;;
20621;SDS011;10470;42.670;23.354;2022-08-25T15:10:06;13.80;;;3.30;;
20621;SDS011;10470;42.670;23.354;2022-08-25T15:12:33;9.25;;;2.90;;
20621;SDS011;10470;42.670;23.354;2022-08-25T15:14:58;11.03;;;2.83;;
20621;SDS011;10470;42.670;23.354;2022-08-25T15:17:25;9.20;;;3.80;;
20621;SDS011;10470;42.670;23.354;2022-08-25T15:19:52;10.73;;;3.22;;
20621;SDS011;10470;42.670;23.354;2022-08-25T15:22:17;13.37;;;3.07;;
20621;SDS011;10470;42.670;23.354;2022-08-25T15:24:43;10.47;;;3.40;;
20621;SDS011;10470;42.670;23.354;2022-08-25T15:27:09;15.10;;;3.37;;
20621;SDS011;10470;42.670;23.354;2022-08-25T15:29:37;7.00;;;3.10;;
20621;SDS011;10470;42.670;23.354;2022-08-25T15:32:05;12.80;;;3.87;;
20621;SDS011;10470;42.670;23.354;2022-08-25T15:34:31;13.60;;;3.23;;
20621;SDS011;10470;42.670;23.354;2022-08-25T15:36:57;11.80;;;5.70;;
20621;SDS011;10470;42.670;23.354;2022-08-25T15:39:29;13.07;;;5.50;;
20621;SDS011;10470;42.670;23.354;2022-08-25T15:41:55;9.70;;;3.63;;
20621;SDS011;10470;42.670;23.354;2022-08-25T15:44:21;10.50;;;3.27;;
20621;SDS011;10470;42.670;23.354;2022-08-25T15:46:46;11.70;;;3.63;;
20621;SDS011;10470;42.670;23.354;2022-08-25T15:49:12;8.47;;;3.23;;
20621;SDS011;10470;42.670;23.354;2022-08-25T15:51:37;11.20;;;3.00;;
20621;SDS011;10470;42.670;23.354;2022-08-25T15:54:02;11.00;;;3.37;;
20621;SDS011;10470;42.670;23.354;2022-08-25T15:56:28;9.90;;;3.47;;
20621;SDS011;10470;42.670;23.354;2022-08-25T15:58:55;14.63;;;3.40;;
20621;SDS011;10470;42.670;23.354;2022-08-25T16:01:22;10.07;;;3.10;;
20621;SDS011;10470;42.670;23.354;2022-08-25T16:03:49;11.23;;;3.70;;
20621;SDS011;10470;42.670;23.354;2022-08-25T16:06:15;12.50;;;3.50;;
20621;SDS011;10470;42.670;23.354;2022-08-25T16:08:41;10.43;;;3.33;;
20621;SDS011;10470;42.670;23.354;2022-08-25T16:11:14;11.23;;;3.33;;
20621;SDS011;10470;42.670;23.354;2022-08-25T16:13:48;13.90;;;3.67;;
20621;SDS011;10470;42.670;23.354;2022-08-25T16:16:15;14.63;;;3.83;;
20621;SDS011;10470;42.670;23.354;2022-08-25T16:18:42;17.03;;;4.03;;
20621;SDS011;10470;42.670;23.354;2022-08-25T16:21:10;11.00;;;4.40;;
20621;SDS011;10470;42.670;23.354;2022-08-25T16:23:37;12.13;;;4.00;;
20621;SDS011;10470;42.670;23.354;2022-08-25T16:26:04;7.07;;;3.20;;
20621;SDS011;10470;42.670;23.354;2022-08-25T16:28:32;11.73;;;3.80;;
20621;SDS011;10470;42.670;23.354;2022-08-25T16:30:59;13.47;;;3.50;;
20621;SDS011;10470;42.670;23.354;2022-08-25T16:33:25;10.03;;;3.63;;
20621;SDS011;10470;42.670;23.354;2022-08-25T16:35:51;11.90;;;4.10;;
20621;SDS011;10470;42.670;23.354;2022-08-25T16:38:16;15.93;;;4.70;;
20621;SDS011;10470;42.670;23.354;2022-08-25T16:40:42;11.50;;;4.17;;
20621;SDS011;10470;42.670;23.354;2022-08-25T16:43:08;10.07;;;3.57;;
20621;SDS011;10470;42.670;23.354;2022-08-25T16:45:34;16.73;;;4.00;;
20621;SDS011;10470;42.670;23.354;2022-08-25T16:48:00;8.20;;;3.70;;
20621;SDS011;10470;42.670;23.354;2022-08-25T16:50:27;11.03;;;3.90;;
20621;SDS011;10470;42.670;23.354;2022-08-25T16:52:55;10.80;;;4.10;;
20621;SDS011;10470;42.670;23.354;2022-08-25T16:55:40;8.63;;;3.63;;
20621;SDS011;10470;42.670;23.354;2022-08-25T16:58:06;13.80;;;4.23;;
20621;SDS011;10470;42.670;23.354;2022-08-25T17:00:34;10.63;;;4.00;;
20621;SDS011;10470;42.670;23.354;2022-08-25T17:03:01;12.77;;;4.73;;
20621;SDS011;10470;42.670;23.354;2022-08-25T17:05:29;11.50;;;3.93;;
20621;SDS011;10470;42.670;23.354;2022-08-25T17:07:58;10.47;;;3.73;;
20621;SDS011;10470;42.670;23.354;2022-08-25T17:10:42;10.10;;;3.90;;
20621;SDS011;10470;42.670;23.354;2022-08-25T17:13:08;7.87;;;3.93;;
20621;SDS011;10470;42.670;23.354;2022-08-25T17:15:37;9.93;;;4.10;;